sensor_id;sensor_type;location;lat;lon;timestamp;pressure;altitude;pressure_sealevel;temperature
73673;BMP280;61972;19.480;-99.240;2023-04-29T00:00:27;77298.47;;;30.96
73673;BMP280;61972;19.480;-99.240;2023-04-29T00:02:53;77297.91;;;30.96
73673;BMP280;61972;19.480;-99.240;2023-04-29T00:05:20;77308.47;;;30.96
73673;BMP280;61972;19.480;-99.240;2023-04-29T00:07:46;77307.91;;;30.95
73673;BMP280;61972;19.480;-99.240;2023-04-29T00:10:12;77309.00;;;30.96
73673;BMP280;61972;19.480;-99.240;2023-04-29T00:12:40;77307.91;;;30.95
73673;BMP280;61972;19.480;-99.240;2023-04-29T00:15:07;77307.91;;;30.95
73673;BMP280;61972;19.480;-99.240;2023-04-29T00:17:33;77307.91;;;30.95
73673;BMP280;61972;19.480;-99.240;2023-04-29T00:20:00;77311.56;;;30.93
73673;BMP280;61972;19.480;-99.240;2023-04-29T00:22:26;77315.22;;;30.92
73673;BMP280;61972;19.480;-99.240;2023-04-29T00:24:52;77316.28;;;30.93
73673;BMP280;61972;19.480;-99.240;2023-04-29T00:27:18;77321.53;;;30.93
73673;BMP280;61972;19.480;-99.240;2023-04-29T00:29:44;77322.13;;;30.93
73673;BMP280;61972;19.480;-99.240;2023-04-29T00:32:11;77320.47;;;30.92
73673;BMP280;61972;19.480;-99.240;2023-04-29T00:34:37;77322.00;;;30.91
73673;BMP280;61972;19.480;-99.240;2023-04-29T00:37:03;77324.09;;;30.90
73673;BMP280;61972;19.480;-99.240;2023-04-29T00:39:29;77332.56;;;30.91
73673;BMP280;61972;19.480;-99.240;2023-04-29T00:41:55;77326.72;;;30.90
73673;BMP280;61972;19.480;-99.240;2023-04-29T00:44:21;77331.47;;;30.90
73673;BMP280;61972;19.480;-99.240;2023-04-29T00:46:47;77332.44;;;30.88
73673;BMP280;61972;19.480;-99.240;2023-04-29T00:49:13;77331.91;;;30.88
73673;BMP280;61972;19.480;-99.240;2023-04-29T00:51:40;77338.72;;;30.87
73673;BMP280;61972;19.480;-99.240;2023-04-29T00:54:08;77349.28;;;30.87
73673;BMP280;61972;19.480;-99.240;2023-04-29T00:56:36;77345.56;;;30.86
73673;BMP280;61972;19.480;-99.240;2023-04-29T00:59:02;77352.91;;;30.85
73673;BMP280;61972;19.480;-99.240;2023-04-29T01:01:29;77354.44;;;30.84
73673;BMP280;61972;19.480;-99.240;2023-04-29T01:03:56;77357.09;;;30.84
73673;BMP280;61972;19.480;-99.240;2023-04-29T01:09:46;77363.78;;;30.81
73673;BMP280;61972;19.480;-99.240;2023-04-29T01:12:23;77370.59;;;30.80
73673;BMP280;61972;19.480;-99.240;2023-04-29T01:15:46;77373.16;;;30.77
73673;BMP280;61972;19.480;-99.240;2023-04-29T01:18:26;77386.34;;;30.77
73673;BMP280;61972;19.480;-99.240;2023-04-29T01:20:56;77384.69;;;30.76
73673;BMP280;61972;19.480;-99.240;2023-04-29T01:23:26;77388.88;;;30.74
73673;BMP280;61972;19.480;-99.240;2023-04-29T01:25:53;77396.22;;;30.74
73673;BMP280;61972;19.480;-99.240;2023-04-29T01:28:42;77391.94;;;30.72
73673;BMP280;61972;19.480;-99.240;2023-04-29T01:31:50;77402.38;;;30.70
73673;BMP280;61972;19.480;-99.240;2023-04-29T01:34:58;77407.66;;;30.70
73673;BMP280;61972;19.480;-99.240;2023-04-29T01:38:33;77404.91;;;30.67
73673;BMP280;61972;19.480;-99.240;2023-04-29T01:40:46;77418.53;;;30.65
73673;BMP280;61972;19.480;-99.240;2023-04-29T01:43:14;77418.53;;;30.65
73673;BMP280;61972;19.480;-99.240;2023-04-29T01:45:42;77411.06;;;30.63
73673;BMP280;61972;19.480;-99.240;2023-04-29T01:48:14;77414.69;;;30.62
73673;BMP280;61972;19.480;-99.240;2023-04-29T01:50:40;77428.88;;;30.60
73673;BMP280;61972;19.480;-99.240;2023-04-29T01:53:06;77431.94;;;30.58
73673;BMP280;61972;19.480;-99.240;2023-04-29T01:55:32;77434.56;;;30.58
73673;BMP280;61972;19.480;-99.240;2023-04-29T01:57:59;77425.56;;;30.57
73673;BMP280;61972;19.480;-99.240;2023-04-29T02:00:25;77442.91;;;30.56
73673;BMP280;61972;19.480;-99.240;2023-04-29T02:02:51;77442.25;;;30.53
73673;BMP280;61972;19.480;-99.240;2023-04-29T02:05:17;77447.53;;;30.53
73673;BMP280;61972;19.480;-99.240;2023-04-29T02:07:43;77445.34;;;30.51
73673;BMP280;61972;19.480;-99.240;2023-04-29T02:10:09;77448.41;;;30.49
73673;BMP280;61972;19.480;-99.240;2023-04-29T02:12:36;77452.03;;;30.47
73673;BMP280;61972;19.480;-99.240;2023-04-29T02:15:04;77453.03;;;30.46
73673;BMP280;61972;19.480;-99.240;2023-04-29T02:17:32;77455.53;;;30.43
73673;BMP280;61972;19.480;-99.240;2023-04-29T02:19:59;77459.72;;;30.42
73673;BMP280;61972;19.480;-99.240;2023-04-29T02:22:25;77458.03;;;30.41
73673;BMP280;61972;19.480;-99.240;2023-04-29T02:24:51;77462.66;;;30.38
73673;BMP280;61972;19.480;-99.240;2023-04-29T02:27:17;77461.00;;;30.36
73673;BMP280;61972;19.480;-99.240;2023-04-29T02:29:43;77465.06;;;30.32
73673;BMP280;61972;19.480;-99.240;2023-04-29T02:32:09;77470.78;;;30.30
73673;BMP280;61972;19.480;-99.240;2023-04-29T02:34:38;77472.75;;;30.27
73673;BMP280;61972;19.480;-99.240;2023-04-29T02:37:24;77473.72;;;30.26
73673;BMP280;61972;19.480;-99.240;2023-04-29T02:39:53;77476.91;;;30.26
73673;BMP280;61972;19.480;-99.240;2023-04-29T02:42:20;77471.75;;;30.29
73673;BMP280;61972;19.480;-99.240;2023-04-29T02:44:46;77478.25;;;30.32
73673;BMP280;61972;19.480;-99.240;2023-04-29T02:47:12;77478.47;;;30.38
73673;BMP280;61972;19.480;-99.240;2023-04-29T02:49:38;77481.34;;;30.43
73673;BMP280;61972;19.480;-99.240;2023-04-29T02:52:04;77486.44;;;30.50
73673;BMP280;61972;19.480;-99.240;2023-04-29T02:54:33;77491.91;;;30.55
73673;BMP280;61972;19.480;-99.240;2023-04-29T02:57:01;77490.19;;;30.63
73673;BMP280;61972;19.480;-99.240;2023-04-29T02:59:27;77499.00;;;30.71
73673;BMP280;61972;19.480;-99.240;2023-04-29T03:01:53;77499.34;;;30.79
73673;BMP280;61972;19.480;-99.240;2023-04-29T03:04:19;77500.78;;;30.88
73673;BMP280;61972;19.480;-99.240;2023-04-29T03:06:45;77504.28;;;30.96
73673;BMP280;61972;19.480;-99.240;2023-04-29T03:09:11;77499.91;;;31.04
73673;BMP280;61972;19.480;-99.240;2023-04-29T03:11:39;77506.06;;;31.12
73673;BMP280;61972;19.480;-99.240;2023-04-29T03:14:05;77510.13;;;31.21
73673;BMP280;61972;19.480;-99.240;2023-04-29T03:16:31;77514.66;;;31.28
73673;BMP280;61972;19.480;-99.240;2023-04-29T03:18:57;77515.97;;;31.34
73673;BMP280;61972;19.480;-99.240;2023-04-29T03:21:23;77513.56;;;31.39
73673;BMP280;61972;19.480;-99.240;2023-04-29T03:23:50;77514.75;;;31.43
73673;BMP280;61972;19.480;-99.240;2023-04-29T03:26:16;77521.22;;;31.46
73673;BMP280;61972;19.480;-99.240;2023-04-29T03:28:42;77520.81;;;31.48
73673;BMP280;61972;19.480;-99.240;2023-04-29T03:31:09;77527.75;;;31.50
73673;BMP280;61972;19.480;-99.240;2023-04-29T03:33:36;77524.13;;;31.51
73673;BMP280;61972;19.480;-99.240;2023-04-29T03:36:03;77528.97;;;31.54
73673;BMP280;61972;19.480;-99.240;2023-04-29T03:38:30;77530.03;;;31.55
73673;BMP280;61972;19.480;-99.240;2023-04-29T03:40:56;77531.69;;;31.56
73673;BMP280;61972;19.480;-99.240;2023-04-29T03:43:22;77530.81;;;31.60
73673;BMP280;61972;19.480;-99.240;2023-04-29T03:45:48;77536.44;;;31.68
73673;BMP280;61972;19.480;-99.240;2023-04-29T03:48:15;77541.16;;;31.80
73673;BMP280;61972;19.480;-99.240;2023-04-29T03:50:41;77530.09;;;31.94
73673;BMP280;61972;19.480;-99.240;2023-04-29T03:53:07;77535.00;;;32.11
73673;BMP280;61972;19.480;-99.240;2023-04-29T03:55:33;77543.13;;;32.28
73673;BMP280;61972;19.480;-99.240;2023-04-29T03:58:00;77544.41;;;32.47
73673;BMP280;61972;19.480;-99.240;2023-04-29T04:00:26;77551.38;;;32.63
73673;BMP280;61972;19.480;-99.240;2023-04-29T04:02:56;77548.88;;;32.81
73673;BMP280;61972;19.480;-99.240;2023-04-29T04:05:22;77554.31;;;32.98
73673;BMP280;61972;19.480;-99.240;2023-04-29T04:07:56;77552.88;;;33.17
73673;BMP280;61972;19.480;-99.240;2023-04-29T04:10:22;77556.72;;;33.35
73673;BMP280;61972;19.480;-99.240;2023-04-29T04:12:48;77557.94;;;33.54
73673;BMP280;61972;19.480;-99.240;2023-04-29T04:15:14;77556.94;;;33.70
73673;BMP280;61972;19.480;-99.240;2023-04-29T04:17:42;77560.13;;;33.85
73673;BMP280;61972;19.480;-99.240;2023-04-29T04:20:09;77557.38;;;33.98
73673;BMP280;61972;19.480;-99.240;2023-04-29T04:22:36;77564.13;;;34.09
73673;BMP280;61972;19.480;-99.240;2023-04-29T04:25:02;77564.94;;;34.17
73673;BMP280;61972;19.480;-99.240;2023-04-29T04:27:29;77567.75;;;34.22
73673;BMP280;61972;19.480;-99.240;2023-04-29T04:29:55;77571.63;;;34.26
73673;BMP280;61972;19.480;-99.240;2023-04-29T04:32:22;77586.50;;;34.28
73673;BMP280;61972;19.480;-99.240;2023-04-29T04:34:48;77579.66;;;34.29
73673;BMP280;61972;19.480;-99.240;2023-04-29T04:37:15;77578.09;;;34.30
73673;BMP280;61972;19.480;-99.240;2023-04-29T04:39:42;77582.41;;;34.31
73673;BMP280;61972;19.480;-99.240;2023-04-29T04:42:08;77582.94;;;34.32
73673;BMP280;61972;19.480;-99.240;2023-04-29T04:44:34;77578.72;;;34.33
73673;BMP280;61972;19.480;-99.240;2023-04-29T04:47:00;77573.97;;;34.33
73673;BMP280;61972;19.480;-99.240;2023-04-29T04:49:27;77582.47;;;34.34
73673;BMP280;61972;19.480;-99.240;2023-04-29T04:51:53;77579.28;;;34.33
73673;BMP280;61972;19.480;-99.240;2023-04-29T04:54:19;77577.00;;;34.29
73673;BMP280;61972;19.480;-99.240;2023-04-29T04:56:45;77577.28;;;34.21
73673;BMP280;61972;19.480;-99.240;2023-04-29T04:59:13;77578.59;;;34.13
73673;BMP280;61972;19.480;-99.240;2023-04-29T05:01:39;77580.41;;;34.04
73673;BMP280;61972;19.480;-99.240;2023-04-29T05:04:05;77589.03;;;33.93
73673;BMP280;61972;19.480;-99.240;2023-04-29T05:06:31;77579.50;;;33.79
73673;BMP280;61972;19.480;-99.240;2023-04-29T05:08:57;77587.47;;;33.64
73673;BMP280;61972;19.480;-99.240;2023-04-29T05:11:24;77590.66;;;33.50
73673;BMP280;61972;19.480;-99.240;2023-04-29T05:13:51;77583.69;;;33.33
73673;BMP280;61972;19.480;-99.240;2023-04-29T05:16:17;77588.41;;;33.18
73673;BMP280;61972;19.480;-99.240;2023-04-29T05:18:43;77594.69;;;33.01
73673;BMP280;61972;19.480;-99.240;2023-04-29T05:21:11;77592.53;;;32.87
73673;BMP280;61972;19.480;-99.240;2023-04-29T05:23:38;77594.13;;;32.74
73673;BMP280;61972;19.480;-99.240;2023-04-29T05:26:04;77594.81;;;32.64
73673;BMP280;61972;19.480;-99.240;2023-04-29T05:28:30;77592.97;;;32.58
73673;BMP280;61972;19.480;-99.240;2023-04-29T05:30:56;77588.03;;;32.53
73673;BMP280;61972;19.480;-99.240;2023-04-29T05:33:22;77586.38;;;32.52
73673;BMP280;61972;19.480;-99.240;2023-04-29T05:35:48;77585.81;;;32.51
73673;BMP280;61972;19.480;-99.240;2023-04-29T05:38:14;77588.47;;;32.51
73673;BMP280;61972;19.480;-99.240;2023-04-29T05:40:40;77585.38;;;32.53
73673;BMP280;61972;19.480;-99.240;2023-04-29T05:43:07;77586.47;;;32.54
73673;BMP280;61972;19.480;-99.240;2023-04-29T05:45:33;77587.56;;;32.55
73673;BMP280;61972;19.480;-99.240;2023-04-29T05:47:59;77590.22;;;32.55
73673;BMP280;61972;19.480;-99.240;2023-04-29T05:50:25;77601.91;;;32.56
73673;BMP280;61972;19.480;-99.240;2023-04-29T05:52:51;77595.72;;;32.60
73673;BMP280;61972;19.480;-99.240;2023-04-29T05:55:19;77596.34;;;32.63
73673;BMP280;61972;19.480;-99.240;2023-04-29T05:57:45;77596.13;;;32.71
73673;BMP280;61972;19.480;-99.240;2023-04-29T06:00:11;77598.53;;;32.78
73673;BMP280;61972;19.480;-99.240;2023-04-29T06:02:38;77604.56;;;32.83
73673;BMP280;61972;19.480;-99.240;2023-04-29T06:05:07;77611.69;;;32.90
73673;BMP280;61972;19.480;-99.240;2023-04-29T06:07:34;77608.81;;;32.97
73673;BMP280;61972;19.480;-99.240;2023-04-29T06:10:01;77601.72;;;33.05
73673;BMP280;61972;19.480;-99.240;2023-04-29T06:12:27;77604.56;;;33.11
73673;BMP280;61972;19.480;-99.240;2023-04-29T06:14:53;77602.56;;;33.14
73673;BMP280;61972;19.480;-99.240;2023-04-29T06:17:23;77601.00;;;33.15
73673;BMP280;61972;19.480;-99.240;2023-04-29T06:19:49;77604.75;;;33.16
73673;BMP280;61972;19.480;-99.240;2023-04-29T06:22:15;77599.00;;;33.18
73673;BMP280;61972;19.480;-99.240;2023-04-29T06:24:41;77602.31;;;33.21
73673;BMP280;61972;19.480;-99.240;2023-04-29T06:27:08;77600.81;;;33.24
73673;BMP280;61972;19.480;-99.240;2023-04-29T06:29:35;77605.78;;;33.29
73673;BMP280;61972;19.480;-99.240;2023-04-29T06:32:04;77593.31;;;33.35
73673;BMP280;61972;19.480;-99.240;2023-04-29T06:34:30;77597.13;;;33.38
73673;BMP280;61972;19.480;-99.240;2023-04-29T06:36:56;77596.66;;;33.40
73673;BMP280;61972;19.480;-99.240;2023-04-29T06:39:22;77595.22;;;33.44
73673;BMP280;61972;19.480;-99.240;2023-04-29T06:41:48;77596.41;;;33.47
73673;BMP280;61972;19.480;-99.240;2023-04-29T06:44:14;77593.31;;;33.50
73673;BMP280;61972;19.480;-99.240;2023-04-29T06:46:42;77595.41;;;33.49
73673;BMP280;61972;19.480;-99.240;2023-04-29T06:49:08;77596.41;;;33.47
73673;BMP280;61972;19.480;-99.240;2023-04-29T06:51:36;77592.13;;;33.46
73673;BMP280;61972;19.480;-99.240;2023-04-29T06:54:02;77594.75;;;33.46
73673;BMP280;61972;19.480;-99.240;2023-04-29T06:56:29;77591.03;;;33.45
73673;BMP280;61972;19.480;-99.240;2023-04-29T06:58:55;77598.97;;;33.45
73673;BMP280;61972;19.480;-99.240;2023-04-29T07:01:22;77595.75;;;33.44
73673;BMP280;61972;19.480;-99.240;2023-04-29T07:03:48;77585.63;;;33.42
73673;BMP280;61972;19.480;-99.240;2023-04-29T07:06:14;77584.53;;;33.41
73673;BMP280;61972;19.480;-99.240;2023-04-29T07:08:40;77579.13;;;33.39
73673;BMP280;61972;19.480;-99.240;2023-04-29T07:11:06;77582.78;;;33.37
73673;BMP280;61972;19.480;-99.240;2023-04-29T07:13:32;77575.72;;;33.33
73673;BMP280;61972;19.480;-99.240;2023-04-29T07:15:58;77577.72;;;33.30
73673;BMP280;61972;19.480;-99.240;2023-04-29T07:18:24;77576.09;;;33.29
73673;BMP280;61972;19.480;-99.240;2023-04-29T07:20:51;77574.34;;;33.24
73673;BMP280;61972;19.480;-99.240;2023-04-29T07:23:17;77573.25;;;33.23
73673;BMP280;61972;19.480;-99.240;2023-04-29T07:25:43;77571.09;;;33.21
73673;BMP280;61972;19.480;-99.240;2023-04-29T07:28:09;77573.63;;;33.19
73673;BMP280;61972;19.480;-99.240;2023-04-29T07:30:35;77566.09;;;33.17
73673;BMP280;61972;19.480;-99.240;2023-04-29T07:33:02;77562.28;;;33.13
73673;BMP280;61972;19.480;-99.240;2023-04-29T07:35:29;77569.69;;;33.13
73673;BMP280;61972;19.480;-99.240;2023-04-29T07:37:55;77557.34;;;33.08
73673;BMP280;61972;19.480;-99.240;2023-04-29T07:40:21;77557.25;;;33.06
73673;BMP280;61972;19.480;-99.240;2023-04-29T07:42:47;77555.06;;;33.04
73673;BMP280;61972;19.480;-99.240;2023-04-29T07:45:13;77554.97;;;33.01
73673;BMP280;61972;19.480;-99.240;2023-04-29T07:47:40;77552.78;;;32.99
73673;BMP280;61972;19.480;-99.240;2023-04-29T07:50:06;77555.88;;;32.97
73673;BMP280;61972;19.480;-99.240;2023-04-29T07:52:33;77552.56;;;32.94
73673;BMP280;61972;19.480;-99.240;2023-04-29T07:55:08;77553.00;;;32.92
73673;BMP280;61972;19.480;-99.240;2023-04-29T07:57:37;77547.19;;;32.92
73673;BMP280;61972;19.480;-99.240;2023-04-29T08:00:06;77544.44;;;32.89
73673;BMP280;61972;19.480;-99.240;2023-04-29T08:02:33;77547.09;;;32.89
73673;BMP280;61972;19.480;-99.240;2023-04-29T08:04:59;77550.19;;;32.87
73673;BMP280;61972;19.480;-99.240;2023-04-29T08:07:26;77551.72;;;32.86
73673;BMP280;61972;19.480;-99.240;2023-04-29T08:09:52;77550.63;;;32.85
73673;BMP280;61972;19.480;-99.240;2023-04-29T08:12:18;77550.63;;;32.85
73673;BMP280;61972;19.480;-99.240;2023-04-29T08:14:45;77549.53;;;32.84
73673;BMP280;61972;19.480;-99.240;2023-04-29T08:17:11;77545.78;;;32.83
73673;BMP280;61972;19.480;-99.240;2023-04-29T08:19:37;77551.06;;;32.83
73673;BMP280;61972;19.480;-99.240;2023-04-29T08:22:03;77561.13;;;32.82
73673;BMP280;61972;19.480;-99.240;2023-04-29T08:24:29;77562.69;;;32.81
73673;BMP280;61972;19.480;-99.240;2023-04-29T08:26:55;77552.09;;;32.81
73673;BMP280;61972;19.480;-99.240;2023-04-29T08:29:21;77552.53;;;32.79
73673;BMP280;61972;19.480;-99.240;2023-04-29T08:31:47;77551.97;;;32.79
73673;BMP280;61972;19.480;-99.240;2023-04-29T08:34:14;77544.47;;;32.77
73673;BMP280;61972;19.480;-99.240;2023-04-29T08:36:40;77545.50;;;32.75
73673;BMP280;61972;19.480;-99.240;2023-04-29T08:39:06;77552.31;;;32.74
73673;BMP280;61972;19.480;-99.240;2023-04-29T08:41:33;77545.41;;;32.73
73673;BMP280;61972;19.480;-99.240;2023-04-29T08:43:59;77555.97;;;32.73
73673;BMP280;61972;19.480;-99.240;2023-04-29T08:46:25;77550.13;;;32.72
73673;BMP280;61972;19.480;-99.240;2023-04-29T08:48:52;77546.38;;;32.71
73673;BMP280;61972;19.480;-99.240;2023-04-29T08:51:18;77543.19;;;32.71
73673;BMP280;61972;19.480;-99.240;2023-04-29T08:53:44;77545.84;;;32.71
73673;BMP280;61972;19.480;-99.240;2023-04-29T08:56:16;77548.47;;;32.71
73673;BMP280;61972;19.480;-99.240;2023-04-29T08:58:45;77547.41;;;32.70
73673;BMP280;61972;19.480;-99.240;2023-04-29T09:01:12;77547.84;;;32.67
73673;BMP280;61972;19.480;-99.240;2023-04-29T09:03:43;77543.63;;;32.68
73673;BMP280;61972;19.480;-99.240;2023-04-29T09:06:12;77555.78;;;32.67
73673;BMP280;61972;19.480;-99.240;2023-04-29T09:08:39;77552.03;;;32.66
73673;BMP280;61972;19.480;-99.240;2023-04-29T09:11:08;77557.88;;;32.67
73673;BMP280;61972;19.480;-99.240;2023-04-29T09:13:37;77554.13;;;32.66
73673;BMP280;61972;19.480;-99.240;2023-04-29T09:16:04;77563.06;;;32.64
73673;BMP280;61972;19.480;-99.240;2023-04-29T09:18:51;77555.59;;;32.62
73673;BMP280;61972;19.480;-99.240;2023-04-29T09:21:22;77552.28;;;32.59
73673;BMP280;61972;19.480;-99.240;2023-04-29T09:23:53;77556.94;;;32.56
73673;BMP280;61972;19.480;-99.240;2023-04-29T09:26:20;77549.97;;;32.55
73673;BMP280;61972;19.480;-99.240;2023-04-29T09:31:39;77559.38;;;32.51
73673;BMP280;61972;19.480;-99.240;2023-04-29T09:34:06;77550.31;;;32.50
73673;BMP280;61972;19.480;-99.240;2023-04-29T09:36:49;77555.63;;;32.50
73673;BMP280;61972;19.480;-99.240;2023-04-29T09:39:22;77557.81;;;32.52
73673;BMP280;61972;19.480;-99.240;2023-04-29T09:44:22;77555.16;;;32.52
73673;BMP280;61972;19.480;-99.240;2023-04-29T09:46:56;77552.44;;;32.49
73673;BMP280;61972;19.480;-99.240;2023-04-29T09:49:28;77544.47;;;32.49
73673;BMP280;61972;19.480;-99.240;2023-04-29T09:51:57;77551.44;;;32.51
73673;BMP280;61972;19.480;-99.240;2023-04-29T09:54:26;77543.50;;;32.51
73673;BMP280;61972;19.480;-99.240;2023-04-29T09:56:57;77551.44;;;32.51
73673;BMP280;61972;19.480;-99.240;2023-04-29T09:59:24;77556.72;;;32.51
73673;BMP280;61972;19.480;-99.240;2023-04-29T10:01:52;77553.19;;;32.55
73673;BMP280;61972;19.480;-99.240;2023-04-29T10:04:19;77560.88;;;32.62
73673;BMP280;61972;19.480;-99.240;2023-04-29T10:06:48;77556.97;;;32.71
73673;BMP280;61972;19.480;-99.240;2023-04-29T10:09:16;77557.81;;;32.79
73673;BMP280;61972;19.480;-99.240;2023-04-29T10:11:47;77560.66;;;32.84
73673;BMP280;61972;19.480;-99.240;2023-04-29T10:14:23;77567.16;;;32.88
73673;BMP280;61972;19.480;-99.240;2023-04-29T10:16:57;77567.91;;;32.94
73673;BMP280;61972;19.480;-99.240;2023-04-29T10:22:15;77571.78;;;33.12
73673;BMP280;61972;19.480;-99.240;2023-04-29T10:24:46;77574.91;;;33.25
73673;BMP280;61972;19.480;-99.240;2023-04-29T10:27:13;77574.38;;;33.39
73673;BMP280;61972;19.480;-99.240;2023-04-29T10:29:42;77582.25;;;33.52
73673;BMP280;61972;19.480;-99.240;2023-04-29T10:32:09;77583.72;;;33.63
73673;BMP280;61972;19.480;-99.240;2023-04-29T10:34:37;77588.94;;;33.75
73673;BMP280;61972;19.480;-99.240;2023-04-29T10:37:07;77588.84;;;33.88
73673;BMP280;61972;19.480;-99.240;2023-04-29T10:42:57;77601.97;;;34.15
73673;BMP280;61972;19.480;-99.240;2023-04-29T10:45:31;77597.78;;;34.31
73673;BMP280;61972;19.480;-99.240;2023-04-29T11:05:11;77600.91;;;34.93
73673;BMP280;61972;19.480;-99.240;2023-04-29T11:07:37;77606.53;;;35.03
73673;BMP280;61972;19.480;-99.240;2023-04-29T11:10:03;77600.44;;;35.13
73673;BMP280;61972;19.480;-99.240;2023-04-29T11:12:30;77608.13;;;35.20
73673;BMP280;61972;19.480;-99.240;2023-04-29T11:14:57;77612.63;;;35.29
73673;BMP280;61972;19.480;-99.240;2023-04-29T11:17:36;77611.72;;;35.33
73673;BMP280;61972;19.480;-99.240;2023-04-29T11:20:10;77606.00;;;35.38
73673;BMP280;61972;19.480;-99.240;2023-04-29T11:22:38;77609.38;;;35.43
73673;BMP280;61972;19.480;-99.240;2023-04-29T11:25:05;77617.97;;;35.47
73673;BMP280;61972;19.480;-99.240;2023-04-29T11:27:34;77620.63;;;35.47
73673;BMP280;61972;19.480;-99.240;2023-04-29T11:30:02;77626.47;;;35.47
73673;BMP280;61972;19.480;-99.240;2023-04-29T11:32:36;77622.28;;;35.48
73673;BMP280;61972;19.480;-99.240;2023-04-29T11:35:14;77628.66;;;35.49
73673;BMP280;61972;19.480;-99.240;2023-04-29T11:37:43;77628.75;;;35.52
73673;BMP280;61972;19.480;-99.240;2023-04-29T11:40:11;77634.16;;;35.54
73673;BMP280;61972;19.480;-99.240;2023-04-29T11:42:47;77635.81;;;35.56
73673;BMP280;61972;19.480;-99.240;2023-04-29T11:45:16;77636.88;;;35.57
73673;BMP280;61972;19.480;-99.240;2023-04-29T11:47:44;77630.56;;;35.58
73673;BMP280;61972;19.480;-99.240;2023-04-29T11:50:11;77643.88;;;35.58
73673;BMP280;61972;19.480;-99.240;2023-04-29T11:52:38;77648.63;;;35.58
73673;BMP280;61972;19.480;-99.240;2023-04-29T11:55:11;77653.94;;;35.58
73673;BMP280;61972;19.480;-99.240;2023-04-29T11:57:55;77650.19;;;35.57
73673;BMP280;61972;19.480;-99.240;2023-04-29T12:00:26;77655.03;;;35.59
73673;BMP280;61972;19.480;-99.240;2023-04-29T12:03:18;77659.91;;;35.61
73673;BMP280;61972;19.480;-99.240;2023-04-29T12:06:03;77664.75;;;35.63
73673;BMP280;61972;19.480;-99.240;2023-04-29T12:08:30;77661.59;;;35.65
73673;BMP280;61972;19.480;-99.240;2023-04-29T12:10:59;77664.34;;;35.68
73673;BMP280;61972;19.480;-99.240;2023-04-29T12:13:29;77674.41;;;35.67
73673;BMP280;61972;19.480;-99.240;2023-04-29T12:15:56;77676.06;;;35.69
73673;BMP280;61972;19.480;-99.240;2023-04-29T12:18:32;77674.97;;;35.68
73673;BMP280;61972;19.480;-99.240;2023-04-29T12:20:58;77690.94;;;35.68
73673;BMP280;61972;19.480;-99.240;2023-04-29T12:23:24;77685.06;;;35.67
73673;BMP280;61972;19.480;-99.240;2023-04-29T12:25:56;77687.81;;;35.70
73673;BMP280;61972;19.480;-99.240;2023-04-29T12:28:23;77695.31;;;35.72
73673;BMP280;61972;19.480;-99.240;2023-04-29T12:30:51;77694.31;;;35.73
73673;BMP280;61972;19.480;-99.240;2023-04-29T12:33:26;77697.50;;;35.74
73673;BMP280;61972;19.480;-99.240;2023-04-29T12:35:54;77704.47;;;35.75
73673;BMP280;61972;19.480;-99.240;2023-04-29T12:38:26;77707.69;;;35.76
73673;BMP280;61972;19.480;-99.240;2023-04-29T12:40:58;77720.44;;;35.75
73673;BMP280;61972;19.480;-99.240;2023-04-29T12:43:28;77724.66;;;35.74
73673;BMP280;61972;19.480;-99.240;2023-04-29T12:46:07;77735.28;;;35.74
73673;BMP280;61972;19.480;-99.240;2023-04-29T12:48:35;77739.06;;;35.75
73673;BMP280;61972;19.480;-99.240;2023-04-29T12:53:50;77745.00;;;35.78
73673;BMP280;61972;19.480;-99.240;2023-04-29T12:56:39;77745.00;;;35.78
73673;BMP280;61972;19.480;-99.240;2023-04-29T13:04:40;77760.47;;;35.80
73673;BMP280;61972;19.480;-99.240;2023-04-29T13:07:06;77764.16;;;35.79
73673;BMP280;61972;19.480;-99.240;2023-04-29T13:09:32;77765.19;;;35.77
73673;BMP280;61972;19.480;-99.240;2023-04-29T13:12:00;77775.81;;;35.77
73673;BMP280;61972;19.480;-99.240;2023-04-29T13:14:27;77781.22;;;35.80
73673;BMP280;61972;19.480;-99.240;2023-04-29T13:16:54;77777.53;;;35.81
73673;BMP280;61972;19.480;-99.240;2023-04-29T13:19:22;77770.19;;;35.84
73673;BMP280;61972;19.480;-99.240;2023-04-29T13:21:49;77769.72;;;35.87
73673;BMP280;61972;19.480;-99.240;2023-04-29T13:24:15;77781.53;;;35.90
73673;BMP280;61972;19.480;-99.240;2023-04-29T13:26:43;77782.63;;;35.91
73673;BMP280;61972;19.480;-99.240;2023-04-29T13:29:09;77782.09;;;35.91
73673;BMP280;61972;19.480;-99.240;2023-04-29T13:31:36;77790.09;;;35.91
73673;BMP280;61972;19.480;-99.240;2023-04-29T13:34:02;77788.50;;;35.92
73673;BMP280;61972;19.480;-99.240;2023-04-29T13:36:28;77785.84;;;35.92
73673;BMP280;61972;19.480;-99.240;2023-04-29T13:38:54;77791.72;;;35.92
73673;BMP280;61972;19.480;-99.240;2023-04-29T13:41:21;77788.03;;;35.94
73673;BMP280;61972;19.480;-99.240;2023-04-29T13:46:33;77796.66;;;35.97
73673;BMP280;61972;19.480;-99.240;2023-04-29T13:48:59;77796.72;;;35.99
73673;BMP280;61972;19.480;-99.240;2023-04-29T13:51:25;77801.56;;;36.01
73673;BMP280;61972;19.480;-99.240;2023-04-29T13:53:52;77795.72;;;36.01
73673;BMP280;61972;19.480;-99.240;2023-04-29T13:56:21;77800.03;;;36.02
73673;BMP280;61972;19.480;-99.240;2023-04-29T13:58:49;77796.81;;;36.02
73673;BMP280;61972;19.480;-99.240;2023-04-29T14:01:36;77800.03;;;36.02
73673;BMP280;61972;19.480;-99.240;2023-04-29T14:04:08;77803.25;;;36.03
73673;BMP280;61972;19.480;-99.240;2023-04-29T14:06:42;77803.25;;;36.03
73673;BMP280;61972;19.480;-99.240;2023-04-29T14:09:11;77800.09;;;36.05
73673;BMP280;61972;19.480;-99.240;2023-04-29T14:11:38;77801.19;;;36.06
73673;BMP280;61972;19.480;-99.240;2023-04-29T14:14:04;77798.06;;;36.08
73673;BMP280;61972;19.480;-99.240;2023-04-29T14:16:30;77807.78;;;36.12
73673;BMP280;61972;19.480;-99.240;2023-04-29T14:18:59;77804.66;;;36.14
73673;BMP280;61972;19.480;-99.240;2023-04-29T14:21:26;77807.94;;;36.17
73673;BMP280;61972;19.480;-99.240;2023-04-29T14:23:52;77807.38;;;36.17
73673;BMP280;61972;19.480;-99.240;2023-04-29T14:26:24;77813.28;;;36.17
73673;BMP280;61972;19.480;-99.240;2023-04-29T14:29:03;77818.03;;;36.17
73673;BMP280;61972;19.480;-99.240;2023-04-29T14:31:57;77807.94;;;36.17
73673;BMP280;61972;19.480;-99.240;2023-04-29T14:34:22;77812.78;;;36.19